Time;durP1;ratioP1;P1;durP2;ratioP2;P2;SDS_P1;SDS_P2;PMS_P1;PMS_P2;Temp;Humidity;BMP_temperature;BMP_pressure;BME280_temperature;BME280_humidity;BME280_pressure;Samples;Min_cycle;Max_cycle;Signal;HPM_P1;HPM_P2
2021/09/01 00:01:52;;;;;;;1.98;1.15;;;15.40;99.90;;;;;;5085150;28;20282;-79
2021/09/01 00:04:17;;;;;;;3.05;1.30;;;15.40;99.90;;;;;;5043083;28;20490;-79
2021/09/01 00:06:43;;;;;;;;;;;15.40;99.90;;;;;;5053280;28;20097;-79
2021/09/01 00:09:08;;;;;;;6.85;1.80;;;15.40;99.90;;;;;;5054952;28;19951;-78
2021/09/01 00:11:34;;;;;;;2.67;2.13;;;15.40;99.90;;;;;;5052245;28;20044;-78
2021/09/01 00:14:00;;;;;;;;;;;15.40;99.90;;;;;;5053289;28;20047;-78
2021/09/01 00:16:26;;;;;;;1.48;1.33;;;15.40;99.90;;;;;;5052912;28;19935;-78
2021/09/01 00:18:56;;;;;;;;;;;15.40;99.90;;;;;;5036890;28;20133;-79
2021/09/01 00:21:22;;;;;;;2.95;1.60;;;15.40;99.90;;;;;;5052869;28;20583;-79
2021/09/01 00:23:48;;;;;;;5.60;2.08;;;15.40;99.90;;;;;;5055199;28;20037;-78
2021/09/01 00:26:14;;;;;;;2.90;2.00;;;15.40;99.90;;;;;;5052921;28;20036;-78
2021/09/01 00:28:40;;;;;;;3.00;1.58;;;15.40;99.90;;;;;;5053220;28;20524;-79
2021/09/01 00:31:05;;;;;;;;;;;15.30;99.90;;;;;;5054508;28;20041;-79
2021/09/01 00:33:31;;;;;;;1.92;1.15;;;15.30;99.90;;;;;;5050887;28;19920;-79
2021/09/01 00:35:57;;;;;;;6.80;2.20;;;15.30;99.90;;;;;;5046771;28;20084;-79
2021/09/01 00:38:22;;;;;;;;;;;15.20;99.90;;;;;;5052524;28;20051;-79
2021/09/01 00:40:48;;;;;;;1.95;1.70;;;15.20;99.90;;;;;;5069236;28;20379;-79
2021/09/01 00:43:14;;;;;;;5.05;2.20;;;15.20;99.90;;;;;;5051643;28;20055;-78
2021/09/01 00:45:45;;;;;;;;;;;15.20;99.90;;;;;;5045700;28;20036;-79
2021/09/01 00:48:11;;;;;;;1.60;1.30;;;15.20;99.90;;;;;;5068348;28;19997;-78
2021/09/01 00:50:37;;;;;;;3.22;1.15;;;15.20;99.90;;;;;;5053356;28;20497;-79
2021/09/01 00:53:04;;;;;;;3.25;1.70;;;15.10;99.90;;;;;;5043074;28;20106;-78
2021/09/01 00:55:30;;;;;;;2.00;1.52;;;15.10;99.90;;;;;;5066461;28;20052;-79
2021/09/01 00:57:55;;;;;;;6.45;2.03;;;15.20;99.90;;;;;;5094753;28;20036;-78
2021/09/01 01:00:34;;;;;;;1.48;1.17;;;15.20;99.90;;;;;;5069795;28;20206;-79
2021/09/01 01:03:01;;;;;;;2.28;1.10;;;15.20;99.90;;;;;;5067148;28;20068;-79
2021/09/01 01:05:26;;;;;;;1.67;1.42;;;15.20;99.90;;;;;;5037247;28;20044;-78
2021/09/01 01:07:52;;;;;;;3.80;2.00;;;15.20;99.90;;;;;;5065701;28;20044;-79
2021/09/01 01:10:18;;;;;;;;;;;15.20;99.90;;;;;;5042925;28;20103;-79
2021/09/01 01:12:43;;;;;;;1.88;0.85;;;15.20;99.90;;;;;;5063162;28;19964;-79
2021/09/01 01:15:09;;;;;;;;;;;15.20;99.90;;;;;;5045331;28;20041;-79
2021/09/01 01:17:35;;;;;;;2.65;1.35;;;15.20;99.90;;;;;;5065035;28;19942;-79
2021/09/01 01:20:00;;;;;;;1.90;1.08;;;15.20;99.90;;;;;;5055151;28;20143;-78
2021/09/01 01:22:26;;;;;;;5.57;2.25;;;15.20;99.90;;;;;;5065167;28;20457;-78
2021/09/01 01:24:53;;;;;;;;;;;15.20;99.90;;;;;;5059627;28;20083;-78
2021/09/01 01:27:36;;;;;;;2.80;1.50;;;15.10;99.90;;;;;;5084051;28;20278;-78
2021/09/01 01:30:12;;;;;;;6.10;2.22;;;15.20;99.90;;;;;;5057351;28;20260;-79
2021/09/01 01:32:40;;;;;;;4.35;1.45;;;15.20;99.90;;;;;;5065332;28;20048;-79
2021/09/01 01:35:06;;;;;;;6.55;1.25;;;15.20;99.90;;;;;;5061660;28;20053;-78
2021/09/01 01:37:32;;;;;;;2.95;1.10;;;15.10;99.90;;;;;;5053091;28;20051;-78
2021/09/01 01:39:58;;;;;;;2.78;1.88;;;15.10;99.90;;;;;;5021208;28;20044;-78
2021/09/01 01:42:24;;;;;;;;;;;15.10;99.90;;;;;;5056282;28;20478;-79
2021/09/01 01:44:49;;;;;;;1.73;1.38;;;15.10;99.90;;;;;;5085158;28;20385;-78
2021/09/01 01:47:15;;;;;;;3.47;1.88;;;15.10;99.90;;;;;;5052742;28;20037;-78
2021/09/01 01:49:41;;;;;;;6.40;1.63;;;15.10;99.90;;;;;;5056461;28;20051;-79
2021/09/01 01:52:07;;;;;;;;;;;15.10;99.90;;;;;;5050940;28;20126;-78
2021/09/01 01:54:32;;;;;;;2.25;1.38;;;15.10;99.90;;;;;;5056791;28;19932;-78
2021/09/01 01:56:59;;;;;;;8.38;1.58;;;15.10;99.90;;;;;;5052802;28;20168;-78
2021/09/01 01:59:24;;;;;;;3.08;1.67;;;15.10;99.90;;;;;;5056597;28;20141;-78
2021/09/01 02:01:50;;;;;;;7.18;1.50;;;15.10;99.90;;;;;;5052662;28;20072;-78
2021/09/01 02:04:16;;;;;;;;;;;15.10;99.90;;;;;;5055992;28;20045;-78
2021/09/01 02:06:41;;;;;;;3.90;1.83;;;15.10;99.90;;;;;;5052005;28;19935;-78
2021/09/01 02:09:07;;;;;;;;;;;15.10;99.90;;;;;;5066446;28;20044;-78
2021/09/01 02:11:33;;;;;;;2.50;1.20;;;15.10;99.90;;;;;;5063360;28;19923;-78
2021/09/01 02:13:59;;;;;;;3.22;1.73;;;15.10;99.90;;;;;;5065887;28;20123;-79
2021/09/01 02:16:25;;;;;;;6.95;1.77;;;15.10;99.90;;;;;;5062190;28;20037;-78
2021/09/01 02:18:50;;;;;;;;;;;15.10;99.90;;;;;;5057838;28;20044;-78
2021/09/01 02:21:16;;;;;;;2.17;1.35;;;15.10;99.90;;;;;;5061905;28;19923;-76
2021/09/01 02:23:42;;;;;;;;;;;15.00;99.90;;;;;;5045883;28;20551;-78
2021/09/01 02:26:07;;;;;;;2.45;1.45;;;15.00;99.90;;;;;;5064852;28;19916;-78
2021/09/01 02:28:33;;;;;;;2.42;1.25;;;15.00;99.90;;;;;;5063455;28;20079;-78
2021/09/01 02:30:58;;;;;;;;;;;14.90;99.90;;;;;;5040332;28;20049;-78
2021/09/01 02:33:24;;;;;;;2.78;1.42;;;14.90;99.90;;;;;;5095035;28;19916;-78
2021/09/01 02:35:50;;;;;;;;;;;14.90;99.90;;;;;;5065628;28;20081;-78
2021/09/01 02:38:16;;;;;;;4.68;1.70;;;14.90;99.90;;;;;;5055928;28;19922;-78
2021/09/01 02:40:41;;;;;;;2.63;1.30;;;14.90;99.90;;;;;;5054279;28;20045;-78
2021/09/01 02:43:07;;;;;;;4.05;1.42;;;14.90;99.90;;;;;;5056976;28;20116;-78
2021/09/01 02:45:33;;;;;;;;;;;14.90;99.90;;;;;;5055748;28;20052;-78
2021/09/01 02:47:58;;;;;;;3.90;1.60;;;14.90;99.90;;;;;;5073381;28;19917;-78
2021/09/01 02:50:24;;;;;;;1.73;1.30;;;15.00;99.90;;;;;;5052078;28;20048;-78
2021/09/01 02:52:50;;;;;;;6.82;2.42;;;15.00;99.90;;;;;;5040228;28;20414;-78
2021/09/01 02:55:15;;;;;;;;;;;15.00;99.90;;;;;;5041700;28;20143;-78
2021/09/01 02:57:41;;;;;;;2.33;1.42;;;15.00;99.90;;;;;;5052063;28;20355;-78
2021/09/01 03:00:08;;;;;;;3.92;1.70;;;15.00;99.90;;;;;;5058014;28;20461;-79
2021/09/01 03:02:34;;;;;;;3.05;1.38;;;15.00;99.90;;;;;;5057479;28;20041;-78
2021/09/01 03:05:00;;;;;;;2.25;1.35;;;15.00;99.90;;;;;;5056978;28;20044;-78
2021/09/01 03:07:25;;;;;;;;;;;15.00;99.90;;;;;;5057574;28;20044;-79
2021/09/01 03:09:51;;;;;;;0.80;0.80;;;15.00;99.90;;;;;;5068421;28;20255;-78
2021/09/01 03:12:17;;;;;;;3.03;2.28;;;15.00;99.90;;;;;;5065984;28;20040;-77
2021/09/01 03:14:42;;;;;;;;;;;15.00;99.90;;;;;;5070413;28;20095;-77
2021/09/01 03:17:08;;;;;;;2.17;1.38;;;15.00;99.90;;;;;;5063198;28;19917;-78
2021/09/01 03:19:34;;;;;;;1.48;1.20;;;15.00;99.90;;;;;;5069740;28;20051;-78
2021/09/01 03:21:59;;;;;;;;;;;15.00;99.90;;;;;;5065238;28;20122;-78
2021/09/01 03:24:25;;;;;;;1.17;1.08;;;15.00;99.90;;;;;;5070633;28;20011;-79
2021/09/01 03:26:51;;;;;;;2.63;1.50;;;15.00;99.90;;;;;;5066876;28;20044;-78
2021/09/01 03:29:16;;;;;;;;;;;14.90;99.90;;;;;;5061475;28;20042;-78
2021/09/01 03:31:42;;;;;;;4.97;1.40;;;14.90;99.90;;;;;;5058400;28;20004;-78
2021/09/01 03:34:09;;;;;;;1.52;1.42;;;14.90;99.90;;;;;;5066566;28;20067;-78
2021/09/01 03:36:35;;;;;;;1.65;1.13;;;14.90;99.90;;;;;;5062745;28;20083;-79
2021/09/01 03:39:00;;;;;;;3.67;1.25;;;14.90;99.90;;;;;;5042205;28;20459;-79
2021/09/01 03:41:26;;;;;;;;;;;14.90;99.90;;;;;;5060879;28;20041;-78
2021/09/01 03:43:52;;;;;;;3.55;1.67;;;14.90;99.90;;;;;;5068585;28;19928;-78
2021/09/01 03:46:17;;;;;;;2.25;1.33;;;14.90;99.90;;;;;;5035355;28;20041;-78
2021/09/01 03:48:43;;;;;;;;;;;14.90;99.90;;;;;;5051711;28;20063;-78
2021/09/01 03:51:09;;;;;;;7.82;1.52;;;14.90;99.90;;;;;;5052640;28;19928;-78
2021/09/01 03:53:35;;;;;;;;;;;14.90;99.90;;;;;;5053203;28;20052;-78
2021/09/01 03:56:00;;;;;;;2.05;1.25;;;14.90;99.90;;;;;;5068680;28;19925;-78
2021/09/01 03:58:26;;;;;;;2.53;1.48;;;14.90;99.90;;;;;;5036321;28;20063;-78
2021/09/01 04:00:51;;;;;;;;;;;14.90;99.90;;;;;;5035803;28;20678;-78
2021/09/01 04:03:17;;;;;;;2.28;2.17;;;14.90;99.90;;;;;;5052697;28;20349;-78
2021/09/01 04:05:43;;;;;;;3.58;1.40;;;15.00;99.90;;;;;;5054305;28;20123;-77
2021/09/01 04:08:09;;;;;;;6.93;1.70;;;14.90;99.90;;;;;;5037381;28;20102;-78
2021/09/01 04:10:34;;;;;;;2.83;2.15;;;15.00;99.90;;;;;;5063839;28;20086;-78
2021/09/01 04:13:00;;;;;;;2.20;2.00;;;15.00;99.90;;;;;;5057478;28;20120;-78
2021/09/01 04:15:26;;;;;;;1.45;1.23;;;15.00;99.90;;;;;;5063923;28;20043;-78
2021/09/01 04:17:51;;;;;;;;;;;15.00;99.90;;;;;;5067075;28;20068;-78
2021/09/01 04:20:17;;;;;;;2.33;1.10;;;15.00;99.90;;;;;;5064955;28;19963;-78
2021/09/01 04:22:43;;;;;;;1.63;1.38;;;15.00;99.90;;;;;;5058784;28;20037;-78
2021/09/01 04:25:09;;;;;;;3.45;1.48;;;15.00;99.90;;;;;;5063812;28;20040;-78
2021/09/01 04:27:34;;;;;;;;;;;15.00;99.90;;;;;;5058999;28;20041;-78
2021/09/01 04:30:00;;;;;;;1.35;0.80;;;15.00;99.90;;;;;;5063845;28;19923;-78
2021/09/01 04:32:26;;;;;;;4.88;1.23;;;15.00;99.90;;;;;;5056923;28;20640;-78
2021/09/01 04:34:52;;;;;;;8.00;1.58;;;15.00;99.90;;;;;;5062479;28;20052;-78
2021/09/01 04:37:17;;;;;;;;;;;15.00;99.90;;;;;;5057456;28;20048;-79
2021/09/01 04:39:43;;;;;;;4.72;1.45;;;15.00;99.90;;;;;;5099624;28;19955;-79
2021/09/01 04:42:09;;;;;;;2.10;1.38;;;15.00;99.90;;;;;;5067545;28;20137;-78
2021/09/01 04:44:34;;;;;;;2.15;1.08;;;14.90;99.90;;;;;;5069054;28;20414;-79
2021/09/01 04:47:00;;;;;;;1.20;1.10;;;14.90;99.90;;;;;;5061244;28;20638;-79
2021/09/01 04:49:26;;;;;;;;;;;15.00;99.90;;;;;;5065624;28;20391;-78
2021/09/01 04:51:51;;;;;;;2.45;2.05;;;15.00;99.90;;;;;;5079553;28;19927;-80
2021/09/01 04:54:17;;;;;;;2.25;1.77;;;14.90;99.90;;;;;;5062141;28;20037;-80
2021/09/01 04:56:43;;;;;;;2.53;1.63;;;14.90;99.90;;;;;;5040344;28;20051;-79
2021/09/01 04:59:09;;;;;;;3.88;1.80;;;14.90;99.90;;;;;;5065957;28;20041;-79
2021/09/01 05:01:35;;;;;;;2.30;1.85;;;14.90;99.90;;;;;;5067085;28;20044;-77
2021/09/01 05:04:01;;;;;;;5.43;2.20;;;14.90;99.90;;;;;;5028095;28;20032;-78
2021/09/01 05:06:27;;;;;;;1.73;1.15;;;15.00;99.90;;;;;;5041781;28;20037;-79
2021/09/01 05:08:56;;;;;;;5.05;1.30;;;15.00;99.90;;;;;;5061920;28;20041;-79
2021/09/01 05:11:23;;;;;;;4.07;2.08;;;15.00;99.90;;;;;;5053377;28;20055;-79
2021/09/01 05:13:49;;;;;;;2.83;1.92;;;15.00;99.90;;;;;;5051930;28;20056;-79
2021/09/01 05:16:14;;;;;;;11.40;2.10;;;15.10;99.90;;;;;;5053064;28;20414;-80
2021/09/01 05:18:40;;;;;;;;;;;15.00;99.90;;;;;;5044062;28;20049;-79
2021/09/01 05:21:09;;;;;;;2.90;2.03;;;15.10;99.90;;;;;;5037188;28;20038;-78
2021/09/01 05:23:35;;;;;;;3.80;1.98;;;15.10;99.90;;;;;;5056702;28;20051;-79
2021/09/01 05:26:03;;;;;;;2.72;1.52;;;15.10;99.90;;;;;;5055296;28;20398;-78
2021/09/01 05:28:33;;;;;;;7.00;2.10;;;15.10;99.90;;;;;;5053500;28;20044;-78
2021/09/01 05:31:02;;;;;;;1.90;1.65;;;15.20;99.90;;;;;;5021003;28;20132;-79
2021/09/01 05:33:36;;;;;;;1.75;0.77;;;15.20;99.90;;;;;;5064328;28;20059;-80
2021/09/01 05:36:05;;;;;;;3.92;2.28;;;15.20;99.90;;;;;;5037936;28;20059;-79
2021/09/01 05:38:33;;;;;;;1.80;1.45;;;15.20;99.90;;;;;;5037664;28;20127;-79
2021/09/01 05:41:00;;;;;;;2.35;1.75;;;15.30;99.90;;;;;;5066984;28;20510;-80
2021/09/01 05:43:26;;;;;;;6.15;1.88;;;15.30;99.90;;;;;;5067981;28;20056;-77
2021/09/01 05:45:52;;;;;;;2.30;1.67;;;15.30;99.90;;;;;;5050887;28;20044;-78
2021/09/01 05:48:23;;;;;;;2.63;1.63;;;15.30;99.90;;;;;;5046357;28;20036;-79
2021/09/01 05:50:54;;;;;;;3.22;1.38;;;15.40;99.90;;;;;;5085283;28;20045;-79
2021/09/01 05:53:21;;;;;;;5.45;2.15;;;15.40;99.90;;;;;;5051332;28;20045;-79
2021/09/01 05:55:51;;;;;;;7.25;1.40;;;15.40;99.90;;;;;;5057356;28;20095;-80
2021/09/01 05:58:19;;;;;;;1.92;1.38;;;15.40;99.90;;;;;;5035552;28;20037;-80
2021/09/01 06:00:58;;;;;;;1.88;1.15;;;15.50;99.90;;;;;;5064495;28;20047;-80
2021/09/01 06:03:29;;;;;;;5.47;1.90;;;15.50;99.90;;;;;;5060452;28;20071;-80
2021/09/01 06:05:57;;;;;;;3.28;2.13;;;15.50;99.90;;;;;;5064133;28;20487;-80
2021/09/01 06:08:32;;;;;;;3.05;1.98;;;15.50;99.90;;;;;;5051914;28;20060;-79
2021/09/01 06:11:00;;;;;;;3.58;1.38;;;15.50;99.90;;;;;;5059133;28;20056;-79
2021/09/01 06:13:26;;;;;;;1.73;1.15;;;15.60;99.90;;;;;;5063454;28;20163;-79
2021/09/01 06:15:52;;;;;;;1.73;1.35;;;15.60;99.90;;;;;;5061822;28;20041;-79
2021/09/01 06:18:17;;;;;;;;;;;15.60;99.90;;;;;;5066061;28;20036;-79
2021/09/01 06:20:43;;;;;;;5.47;2.03;;;15.60;99.90;;;;;;5043821;28;19927;-79
2021/09/01 06:23:09;;;;;;;;;;;15.70;99.90;;;;;;5061408;28;20126;-79
2021/09/01 06:25:36;;;;;;;3.78;1.48;;;15.70;99.90;;;;;;5062241;28;20319;-79
2021/09/01 06:28:03;;;;;;;4.35;1.67;;;15.70;99.90;;;;;;5060430;28;20041;-79
2021/09/01 06:30:29;;;;;;;4.70;1.85;;;15.70;99.90;;;;;;5039377;28;20041;-79
2021/09/01 06:32:55;;;;;;;10.98;1.90;;;15.70;99.90;;;;;;5073624;28;20571;-80
2021/09/01 06:35:20;;;;;;;;;;;15.70;99.90;;;;;;5063933;28;20136;-79
2021/09/01 06:37:46;;;;;;;4.13;2.13;;;15.80;99.90;;;;;;5055960;28;19994;-80
2021/09/01 06:40:13;;;;;;;;;;;15.80;99.90;;;;;;5085306;28;20481;-79
2021/09/01 06:42:39;;;;;;;1.90;1.60;;;15.90;99.90;;;;;;5072995;28;19924;-80
2021/09/01 06:45:05;;;;;;;;;;;15.90;99.90;;;;;;5071738;28;20499;-79
2021/09/01 06:47:44;;;;;;;3.60;1.88;;;15.90;99.90;;;;;;5071827;28;19927;-80
2021/09/01 06:50:12;;;;;;;7.78;1.80;;;16.00;99.90;;;;;;5066505;28;20049;-79
2021/09/01 06:52:39;;;;;;;3.90;2.15;;;16.10;99.90;;;;;;5069986;28;20048;-80
2021/09/01 06:55:05;;;;;;;2.50;1.40;;;16.20;99.90;;;;;;5059452;28;20043;-79
2021/09/01 06:57:31;;;;;;;2.80;1.77;;;16.20;99.90;;;;;;5072428;28;20044;-79
2021/09/01 06:59:57;;;;;;;5.40;1.85;;;16.30;99.90;;;;;;5070533;28;20094;-79
2021/09/01 07:02:22;;;;;;;1.90;0.90;;;16.40;99.90;;;;;;5052956;28;20433;-80
2021/09/01 07:04:48;;;;;;;;;;;16.50;99.90;;;;;;5055486;28;20072;-79
2021/09/01 07:07:13;;;;;;;6.38;1.73;;;16.50;99.90;;;;;;5054681;28;19927;-80
2021/09/01 07:09:39;;;;;;;;;;;16.60;99.90;;;;;;5063780;28;20040;-80
2021/09/01 07:12:05;;;;;;;3.90;1.35;;;16.60;99.90;;;;;;5054107;28;20003;-79
2021/09/01 07:14:30;;;;;;;;;;;16.70;99.90;;;;;;5057426;28;20510;-80
2021/09/01 07:16:56;;;;;;;3.03;1.63;;;16.70;99.90;;;;;;5069517;28;20366;-79
2021/09/01 07:19:22;;;;;;;;;;;16.80;99.90;;;;;;5057811;28;20045;-79
2021/09/01 07:21:47;;;;;;;7.13;2.28;;;16.80;99.90;;;;;;5066585;28;20373;-78
2021/09/01 07:24:13;;;;;;;;;;;16.80;99.90;;;;;;5056548;28;20064;-79
2021/09/01 07:26:39;;;;;;;1.25;1.15;;;16.90;99.90;;;;;;5054115;28;19955;-80
2021/09/01 07:29:04;;;;;;;;;;;16.80;99.90;;;;;;5058257;28;20500;-79
2021/09/01 07:31:33;;;;;;;1.95;1.60;;;16.90;99.90;;;;;;5054079;28;20281;-79
2021/09/01 07:33:59;;;;;;;3.38;1.73;;;16.90;99.90;;;;;;5057202;28;20052;-78
2021/09/01 07:36:25;;;;;;;2.85;1.70;;;16.90;99.90;;;;;;5061556;28;20053;-80
2021/09/01 07:38:50;;;;;;;;;;;16.90;99.90;;;;;;5054150;28;20121;-78
2021/09/01 07:41:16;;;;;;;7.45;1.75;;;17.00;99.90;;;;;;5086620;28;19917;-79
2021/09/01 07:43:42;;;;;;;;;;;17.00;99.90;;;;;;5044173;28;20048;-79
2021/09/01 07:46:08;;;;;;;2.80;1.45;;;17.00;99.90;;;;;;5055867;28;19917;-79
2021/09/01 07:48:35;;;;;;;3.55;1.92;;;17.10;99.90;;;;;;5058809;28;20482;-80
2021/09/01 07:51:01;;;;;;;2.95;1.40;;;17.20;99.90;;;;;;5055593;28;20138;-79
2021/09/01 07:53:28;;;;;;;6.88;2.00;;;17.20;99.90;;;;;;5040331;28;20424;-78
2021/09/01 07:55:53;;;;;;;;;;;17.20;99.90;;;;;;5056666;28;20559;-80
2021/09/01 07:58:19;;;;;;;2.20;1.27;;;17.20;99.90;;;;;;5054344;28;20011;-80
2021/09/01 08:00:45;;;;;;;;;;;17.20;99.90;;;;;;5056686;28;20068;-80
2021/09/01 08:03:10;;;;;;;2.67;1.63;;;17.20;99.90;;;;;;5069453;28;20294;-80
2021/09/01 08:05:36;;;;;;;;;;;17.20;99.90;;;;;;5042952;28;20099;-80
2021/09/01 08:08:02;;;;;;;2.08;1.55;;;17.20;99.90;;;;;;5058096;28;19920;-80
2021/09/01 08:10:28;;;;;;;1.92;1.25;;;17.20;99.90;;;;;;5053908;28;20049;-79
2021/09/01 08:12:54;;;;;;;2.55;1.48;;;17.20;99.90;;;;;;5054776;28;20369;-80
2021/09/01 08:15:19;;;;;;;;;;;17.30;99.90;;;;;;5055355;28;20470;-80
2021/09/01 08:17:45;;;;;;;2.00;1.20;;;17.30;99.90;;;;;;5067541;28;19920;-80
2021/09/01 08:20:11;;;;;;;;;;;17.30;99.90;;;;;;5038445;28;20453;-80
2021/09/01 08:22:37;;;;;;;1.48;1.38;;;17.40;99.90;;;;;;5054506;28;19916;-80
2021/09/01 08:25:03;;;;;;;;;;;17.40;99.90;;;;;;5054441;28;20075;-80
2021/09/01 08:27:29;;;;;;;2.50;1.33;;;17.40;99.90;;;;;;5056181;28;19916;-80
2021/09/01 08:29:54;;;;;;;;;;;17.50;99.90;;;;;;5052764;28;20487;-80
2021/09/01 08:32:20;;;;;;;3.97;1.67;;;17.50;99.90;;;;;;5067200;28;20439;-80
2021/09/01 08:34:46;;;;;;;;;;;17.60;99.90;;;;;;5056013;28;20067;-79
2021/09/01 08:37:12;;;;;;;4.45;1.30;;;17.60;99.90;;;;;;5056560;28;19983;-79
2021/09/01 08:39:38;;;;;;;;;;;17.70;99.90;;;;;;5018066;28;20073;-80
2021/09/01 08:42:04;;;;;;;4.43;2.38;;;17.80;99.90;;;;;;5054243;28;20009;-78
2021/09/01 08:44:29;;;;;;;;;;;17.90;99.90;;;;;;5054132;28;20083;-78
2021/09/01 08:47:00;;;;;;;2.38;1.73;;;18.00;99.90;;;;;;5067633;28;20389;-78
2021/09/01 08:49:30;;;;;;;2.17;1.13;;;18.20;99.90;;;;;;5053112;28;20087;-77
2021/09/01 08:51:57;;;;;;;3.13;1.40;;;18.30;99.90;;;;;;5055978;28;20479;-78
2021/09/01 08:54:23;;;;;;;2.05;1.13;;;18.20;99.90;;;;;;5035118;28;20045;-78
2021/09/01 08:56:49;;;;;;;;;;;18.30;99.90;;;;;;5037731;28;20041;-78
2021/09/01 08:59:15;;;;;;;2.35;1.50;;;18.40;99.90;;;;;;5053805;28;20332;-78
2021/09/01 09:01:53;;;;;;;;;;;18.50;99.90;;;;;;5054482;28;20051;-78
2021/09/01 09:04:23;;;;;;;3.55;1.30;;;18.50;99.90;;;;;;5085273;28;19924;-78
2021/09/01 09:07:00;;;;;;;3.60;1.65;;;18.60;99.90;;;;;;5053342;28;20045;-78
2021/09/01 09:09:30;;;;;;;1.58;1.10;;;18.70;99.90;;;;;;5036348;28;20049;-78
2021/09/01 09:11:58;;;;;;;3.70;1.40;;;18.70;99.90;;;;;;5035936;28;20051;-78
2021/09/01 09:14:38;;;;;;;2.15;1.15;;;18.80;99.90;;;;;;5039617;28;20051;-78
2021/09/01 09:17:18;;;;;;;4.53;1.38;;;18.90;99.90;;;;;;5038932;28;20052;-78
2021/09/01 09:19:51;;;;;;;2.40;1.67;;;18.90;99.90;;;;;;5039513;28;20531;-79
2021/09/01 09:22:27;;;;;;;3.45;1.92;;;18.90;99.90;;;;;;5060644;28;20048;-78
2021/09/01 09:25:21;;;;;;;9.77;2.50;;;19.00;99.90;;;;;;5055944;28;20072;-79
2021/09/01 09:27:50;;;;;;;2.88;1.42;;;19.00;99.90;;;;;;5067088;28;20045;-78
2021/09/01 09:30:24;;;;;;;4.00;1.38;;;19.00;99.90;;;;;;5056566;28;20044;-78
2021/09/01 09:33:09;;;;;;;2.00;1.25;;;19.10;99.90;;;;;;5075127;28;20044;-79
2021/09/01 09:35:58;;;;;;;10.23;2.10;;;19.20;99.90;;;;;;5050959;28;20479;-78
2021/09/01 09:38:45;;;;;;;2.58;1.33;;;19.20;99.90;;;;;;5051269;28;20044;-79
2021/09/01 09:41:24;;;;;;;4.03;1.40;;;19.30;99.90;;;;;;5044630;28;20368;-79
2021/09/01 09:44:12;;;;;;;3.78;1.38;;;19.30;99.90;;;;;;5053014;28;20045;-79
2021/09/01 09:46:48;;;;;;;2.15;1.27;;;19.20;99.90;;;;;;5055740;28;20036;-79
2021/09/01 09:49:14;;;;;;;;;;;19.20;99.90;;;;;;5052537;28;20167;-79
2021/09/01 09:51:42;;;;;;;2.00;1.23;;;19.30;99.90;;;;;;5055372;28;20003;-78
2021/09/01 09:54:21;;;;;;;2.90;1.38;;;19.40;99.90;;;;;;5050368;28;20041;-78
2021/09/01 09:56:49;;;;;;;2.55;1.00;;;19.60;99.90;;;;;;5049665;28;20048;-79
2021/09/01 09:59:20;;;;;;;9.30;1.60;;;19.60;99.90;;;;;;5054429;28;20045;-79
2021/09/01 10:01:47;;;;;;;4.78;1.33;;;19.80;99.90;;;;;;5043488;28;20406;-78
2021/09/01 10:04:14;;;;;;;2.03;1.83;;;19.90;99.90;;;;;;5021005;28;20078;-78
2021/09/01 10:06:43;;;;;;;2.03;1.10;;;19.90;99.90;;;;;;5052925;28;20502;-78
2021/09/01 10:09:09;;;;;;;7.18;1.63;;;19.90;99.90;;;;;;5054326;28;20494;-78
2021/09/01 10:11:39;;;;;;;2.78;1.33;;;19.90;99.90;;;;;;5035706;28;20478;-78
2021/09/01 10:14:07;;;;;;;3.15;1.60;;;19.80;99.90;;;;;;5052466;28;20037;-78
2021/09/01 10:16:35;;;;;;;3.70;1.67;;;19.60;99.90;;;;;;5070526;28;20105;-79
2021/09/01 10:19:16;;;;;;;2.88;1.20;;;19.50;99.90;;;;;;5045893;28;20044;-79
2021/09/01 10:21:46;;;;;;;1.85;1.13;;;19.40;99.90;;;;;;5070927;28;20393;-78
2021/09/01 10:24:19;;;;;;;4.90;1.70;;;19.20;99.90;;;;;;5068439;28;20461;-79
2021/09/01 10:27:07;;;;;;;1.75;1.05;;;19.10;99.90;;;;;;5066718;28;20036;-78
2021/09/01 10:30:00;;;;;;;10.48;2.17;;;19.10;99.90;;;;;;5041465;28;20049;-79
2021/09/01 10:32:40;;;;;;;3.65;1.55;;;19.10;99.90;;;;;;5065137;28;20055;-78
2021/09/01 10:35:12;;;;;;;1.20;1.10;;;19.20;99.90;;;;;;5056761;28;20071;-78
2021/09/01 10:37:53;;;;;;;5.28;1.45;;;19.20;99.90;;;;;;5084343;28;20124;-78
2021/09/01 10:40:23;;;;;;;2.20;1.08;;;19.30;99.90;;;;;;5064660;28;20455;-79
2021/09/01 10:42:53;;;;;;;1.92;1.17;;;19.30;99.90;;;;;;5067272;28;20036;-78
2021/09/01 10:45:43;;;;;;;1.98;1.50;;;19.40;99.90;;;;;;5061307;28;20029;-78
2021/09/01 10:48:09;;;;;;;1.58;1.25;;;19.50;99.90;;;;;;5034913;28;20148;-78
2021/09/01 10:50:45;;;;;;;3.67;1.67;;;19.50;99.90;;;;;;5064836;28;20398;-78
2021/09/01 10:53:23;;;;;;;2.15;1.20;;;19.50;99.90;;;;;;5058517;28;20042;-78
2021/09/01 10:55:56;;;;;;;1.30;1.13;;;19.50;99.90;;;;;;5065312;28;20044;-78
2021/09/01 10:58:41;;;;;;;2.00;1.15;;;19.50;99.90;;;;;;5065864;28;20044;-78
2021/09/01 11:01:16;;;;;;;1.52;0.95;;;19.50;99.90;;;;;;5063176;28;20125;-77
2021/09/01 11:04:04;;;;;;;2.10;1.50;;;19.60;99.90;;;;;;5067303;28;20083;-78
2021/09/01 11:06:35;;;;;;;6.97;1.20;;;19.60;99.90;;;;;;5084479;28;20051;-78
2021/09/01 11:09:09;;;;;;;2.15;1.38;;;19.70;99.90;;;;;;5055861;28;20028;-78
2021/09/01 11:11:45;;;;;;;4.63;1.35;;;19.80;99.90;;;;;;5060321;28;20036;-78
2021/09/01 11:14:14;;;;;;;1.73;1.30;;;19.70;99.90;;;;;;5054003;28;20078;-78
2021/09/01 11:16:40;;;;;;;2.78;1.55;;;19.70;99.90;;;;;;5056385;28;20045;-78
2021/09/01 11:19:12;;;;;;;3.17;1.73;;;19.60;99.90;;;;;;5043016;28;20122;-77
2021/09/01 11:21:46;;;;;;;2.20;1.40;;;19.50;99.90;;;;;;5068660;28;20036;-77
2021/09/01 11:24:18;;;;;;;2.75;1.60;;;19.50;99.90;;;;;;5062787;28;20071;-78
2021/09/01 11:26:45;;;;;;;3.05;1.25;;;19.50;99.90;;;;;;5067214;28;20047;-78
2021/09/01 11:29:11;;;;;;;1.83;0.75;;;19.50;99.90;;;;;;5058397;28;20083;-78
2021/09/01 11:31:43;;;;;;;2.65;1.60;;;19.50;99.90;;;;;;5062075;28;20363;-79
2021/09/01 11:34:14;;;;;;;2.53;1.27;;;19.60;99.90;;;;;;5040692;28;20090;-78
2021/09/01 11:36:42;;;;;;;2.78;1.42;;;19.60;99.90;;;;;;5021377;28;20387;-78
2021/09/01 11:39:08;;;;;;;3.83;1.23;;;19.50;99.90;;;;;;5066354;28;20037;-79
2021/09/01 11:41:33;;;;;;;2.22;1.25;;;19.50;99.90;;;;;;5039247;28;20124;-79
2021/09/01 11:44:02;;;;;;;1.35;1.15;;;19.50;99.90;;;;;;5039290;28;20579;-79
2021/09/01 11:46:36;;;;;;;5.03;2.10;;;19.50;99.90;;;;;;5057356;28;20113;-78
2021/09/01 11:49:06;;;;;;;2.03;1.25;;;19.40;99.90;;;;;;5060024;28;20045;-79
2021/09/01 11:51:33;;;;;;;1.10;1.00;;;19.40;99.90;;;;;;5041216;28;20044;-79
2021/09/01 11:53:59;;;;;;;2.88;1.75;;;19.30;99.90;;;;;;5060988;28;20048;-78
2021/09/01 11:56:26;;;;;;;3.00;0.90;;;19.30;99.90;;;;;;5042960;28;20037;-78
2021/09/01 11:59:03;;;;;;;2.83;0.90;;;19.30;99.90;;;;;;5053903;28;20053;-78
2021/09/01 12:01:32;;;;;;;1.98;1.55;;;19.20;99.90;;;;;;5078118;28;20048;-79
2021/09/01 12:03:58;;;;;;;5.15;1.38;;;19.30;99.90;;;;;;5061264;28;20036;-78
2021/09/01 12:06:41;;;;;;;2.88;1.40;;;19.30;99.90;;;;;;5044443;28;20067;-78
2021/09/01 12:09:13;;;;;;;8.68;1.33;;;19.20;99.90;;;;;;5065884;28;20048;-78
2021/09/01 12:11:46;;;;;;;1.70;1.45;;;19.20;99.90;;;;;;5037402;28;20386;-79
2021/09/01 12:14:12;;;;;;;3.20;1.10;;;19.20;99.90;;;;;;5062006;28;20466;-79
2021/09/01 12:16:38;;;;;;;5.05;1.23;;;19.20;99.90;;;;;;5058428;28;20043;-78
2021/09/01 12:19:11;;;;;;;;;;;19.20;99.90;;;;;;5067742;28;20045;-78
2021/09/01 12:21:58;;;;;;;2.28;1.30;;;19.20;99.90;;;;;;5085681;28;19928;-79
2021/09/01 12:24:32;;;;;;;1.83;1.25;;;19.20;99.90;;;;;;5078274;28;20041;-79
2021/09/01 12:27:08;;;;;;;2.95;1.27;;;19.20;99.90;;;;;;5082180;28;20041;-78
2021/09/01 12:29:39;;;;;;;8.77;1.75;;;19.10;99.90;;;;;;5041416;28;20490;-79
2021/09/01 12:32:14;;;;;;;3.97;1.50;;;19.20;99.90;;;;;;5040477;28;20044;-78
2021/09/01 12:34:43;;;;;;;2.88;1.35;;;19.30;99.90;;;;;;5043086;28;20071;-78
2021/09/01 12:37:41;;;;;;;4.28;1.75;;;19.30;99.90;;;;;;5014284;28;20110;-79
2021/09/01 12:40:10;;;;;;;1.55;1.45;;;19.30;99.90;;;;;;5034788;28;20064;-78
2021/09/01 12:42:37;;;;;;;3.13;1.08;;;19.30;99.90;;;;;;5040852;28;20040;-78
2021/09/01 12:45:14;;;;;;;1.35;1.15;;;19.20;99.90;;;;;;5045679;28;20094;-78
2021/09/01 12:48:11;;;;;;;1.42;0.98;;;19.20;99.90;;;;;;5050357;28;20123;-77
2021/09/01 12:50:37;;;;;;;4.55;1.60;;;19.10;99.90;;;;;;5050765;28;20073;-77
2021/09/01 12:53:05;;;;;;;4.80;2.47;;;19.10;99.90;;;;;;5067543;28;20466;-77
2021/09/01 12:55:41;;;;;;;3.97;1.85;;;19.10;99.90;;;;;;5066939;28;20053;-77
2021/09/01 12:58:07;;;;;;;6.72;1.20;;;19.00;99.90;;;;;;5064505;28;20043;-77
2021/09/01 13:00:33;;;;;;;;;;;19.10;99.90;;;;;;5039451;28;20454;-77
2021/09/01 13:02:59;;;;;;;1.10;0.93;;;19.20;99.90;;;;;;5099666;28;19916;-78
2021/09/01 13:05:25;;;;;;;4.28;1.50;;;19.20;99.90;;;;;;5069405;28;20132;-79
2021/09/01 13:07:51;;;;;;;2.28;1.50;;;19.20;99.90;;;;;;5036502;28;20072;-79
2021/09/01 13:10:19;;;;;;;8.88;1.35;;;19.10;99.90;;;;;;5066179;28;20037;-79